Time;durP1;ratioP1;P1;durP2;ratioP2;P2;SDS_P1;SDS_P2;PMS_P1;PMS_P2;Temp;Humidity;BMP_temperature;BMP_pressure;BME280_temperature;BME280_humidity;BME280_pressure;Samples;Min_cycle;Max_cycle;Signal;HPM_P1;HPM_P2
2021/11/26 00:09:31;;;;;;;0.20;0.10;;;9.40;99.90;;;;;;20697756;28;20202;-72
2021/11/26 00:19:36;;;;;;;0.20;0.10;;;9.10;99.90;;;;;;20734540;28;20317;-71
2021/11/26 00:29:39;;;;;;;0.20;0.10;;;8.70;99.90;;;;;;20744006;28;20215;-71
2021/11/26 00:39:44;;;;;;;0.20;0.10;;;8.50;99.90;;;;;;20748508;28;20230;-71
2021/11/26 00:49:48;;;;;;;0.20;0.10;;;8.60;99.90;;;;;;20750534;28;20205;-69
2021/11/26 00:59:53;;;;;;;0.27;0.23;;;8.80;99.90;;;;;;20806798;22;20227;-73
2021/11/26 01:09:57;;;;;;;0.20;0.10;;;8.90;99.90;;;;;;20681817;28;20641;-74
2021/11/26 01:20:03;;;;;;;0.20;0.10;;;9.00;99.90;;;;;;20666608;28;20314;-73
2021/11/26 01:30:13;;;;;;;0.20;0.10;;;9.00;99.90;;;;;;20664552;28;20223;-74
2021/11/26 01:40:19;;;;;;;0.20;0.10;;;9.00;99.90;;;;;;20661258;28;20254;-72
2021/11/26 01:50:23;;;;;;;0.20;0.10;;;8.90;99.90;;;;;;20664057;28;20192;-74
2021/11/26 02:00:32;;;;;;;0.20;0.10;;;8.90;99.90;;;;;;20684916;23;20231;-72
2021/11/26 02:10:39;;;;;;;0.20;0.10;;;9.00;99.90;;;;;;20758665;28;20197;-74
2021/11/26 02:20:45;;;;;;;0.20;0.10;;;9.10;99.90;;;;;;20744211;28;20249;-74
2021/11/26 02:30:49;;;;;;;0.20;0.10;;;9.10;99.90;;;;;;20741195;28;20294;-73
2021/11/26 02:40:54;;;;;;;0.20;0.17;;;9.10;99.90;;;;;;20738909;28;20223;-73
2021/11/26 02:50:57;;;;;;;0.20;0.10;;;9.20;99.90;;;;;;20740636;28;20259;-73
2021/11/26 03:01:02;;;;;;;0.20;0.10;;;9.30;99.90;;;;;;20752075;23;20334;-71
2021/11/26 03:11:07;;;;;;;0.20;0.10;;;9.50;99.90;;;;;;20739046;28;20598;-70
2021/11/26 03:21:12;;;;;;;0.20;0.10;;;9.40;99.90;;;;;;20737230;28;20226;-71
2021/11/26 03:31:15;;;;;;;0.20;0.10;;;9.40;99.90;;;;;;20737000;28;20191;-71
2021/11/26 03:41:21;;;;;;;0.20;0.10;;;9.30;99.90;;;;;;20655604;28;20238;-71
2021/11/26 03:51:24;;;;;;;0.40;0.40;;;9.30;99.90;;;;;;20670875;28;20203;-72
2021/11/26 04:01:29;;;;;;;0.20;0.10;;;9.30;99.90;;;;;;20658888;28;20299;-73
2021/11/26 04:11:33;;;;;;;0.20;0.10;;;9.20;99.90;;;;;;20695667;28;20674;-72
2021/11/26 04:21:38;;;;;;;0.20;0.10;;;9.30;99.90;;;;;;20751804;28;20230;-73
2021/11/26 04:31:42;;;;;;;0.20;0.10;;;9.40;99.90;;;;;;20750489;28;20668;-74
2021/11/26 04:41:47;;;;;;;0.20;0.10;;;9.40;99.90;;;;;;20750193;28;20774;-73
2021/11/26 04:51:50;;;;;;;0.20;0.10;;;9.30;99.90;;;;;;20748636;28;20654;-73
2021/11/26 05:01:56;;;;;;;0.20;0.10;;;9.20;99.90;;;;;;20748093;28;20333;-72
2021/11/26 05:12:01;;;;;;;0.20;0.10;;;9.10;99.90;;;;;;20747241;28;20207;-73
2021/11/26 05:22:05;;;;;;;0.20;0.10;;;9.00;99.90;;;;;;20746015;28;20233;-72
2021/11/26 05:32:11;;;;;;;0.20;0.10;;;9.10;99.90;;;;;;20744326;28;20528;-71
2021/11/26 05:42:16;;;;;;;0.20;0.10;;;9.20;99.90;;;;;;20744620;28;20313;-72
2021/11/26 05:52:19;;;;;;;0.20;0.10;;;9.20;99.90;;;;;;20743316;28;20194;-72
2021/11/26 06:02:24;;;;;;;0.20;0.10;;;9.30;99.90;;;;;;20743406;28;20711;-72
2021/11/26 06:12:28;;;;;;;0.20;0.10;;;9.30;99.90;;;;;;20743342;28;20217;-75
2021/11/26 06:22:33;;;;;;;0.20;0.10;;;9.40;99.90;;;;;;20740643;28;20223;-74
2021/11/26 06:32:36;;;;;;;0.20;0.10;;;9.30;99.90;;;;;;20738995;28;20207;-73
2021/11/26 06:42:42;;;;;;;0.20;0.10;;;9.20;99.90;;;;;;20738955;28;20320;-73
2021/11/26 06:52:45;;;;;;;0.20;0.10;;;9.30;99.90;;;;;;20736398;28;20671;-73
2021/11/26 07:02:50;;;;;;;0.20;0.10;;;9.20;99.90;;;;;;20731399;28;20258;-72
2021/11/26 07:12:54;;;;;;;0.60;0.60;;;9.20;99.90;;;;;;20733329;28;20274;-73
2021/11/26 07:22:59;;;;;;;0.20;0.10;;;9.00;99.90;;;;;;20732392;28;20329;-72
2021/11/26 07:33:03;;;;;;;0.20;0.10;;;9.20;99.90;;;;;;20731072;28;20195;-73
2021/11/26 07:43:08;;;;;;;0.20;0.10;;;9.50;99.90;;;;;;20732584;28;20219;-77
2021/11/26 07:53:12;;;;;;;0.20;0.10;;;9.60;99.90;;;;;;20733710;28;20630;-72
2021/11/26 08:03:19;;;;;;;0.20;0.10;;;9.80;99.90;;;;;;20732496;28;20265;-73
2021/11/26 08:13:38;;;;;;;0.20;0.10;;;9.80;99.90;;;;;;20731304;28;20215;-74
2021/11/26 08:23:44;;;;;;;0.20;0.10;;;9.70;99.90;;;;;;20731196;28;20252;-73
2021/11/26 08:33:48;;;;;;;0.20;0.10;;;9.90;99.90;;;;;;20730428;28;20378;-70
2021/11/26 08:43:53;;;;;;;0.20;0.10;;;10.30;99.90;;;;;;20729359;28;20217;-72
2021/11/26 08:53:57;;;;;;;0.20;0.10;;;10.50;99.90;;;;;;20742937;28;20313;-73
2021/11/26 09:04:03;;;;;;;0.20;0.10;;;10.30;99.90;;;;;;20746008;28;20223;-72
2021/11/26 09:14:12;;;;;;;0.20;0.10;;;10.20;99.90;;;;;;20743634;28;20229;-73
2021/11/26 09:24:18;;;;;;;0.20;0.10;;;10.30;99.90;;;;;;20731563;28;20216;-72
2021/11/26 09:34:22;;;;;;;0.20;0.10;;;10.80;99.90;;;;;;20739581;28;20238;-73
2021/11/26 09:44:32;;;;;;;0.20;0.10;;;11.20;99.90;;;;;;20739300;28;20191;-73
2021/11/26 09:54:40;;;;;;;0.20;0.10;;;11.40;99.90;;;;;;20738400;28;20309;-71
2021/11/26 10:04:56;;;;;;;0.20;0.10;;;11.60;99.90;;;;;;20739271;28;20252;-73
2021/11/26 10:15:00;;;;;;;0.20;0.10;;;12.00;99.90;;;;;;20710749;28;20712;-73
2021/11/26 10:25:10;;;;;;;0.20;0.10;;;12.50;99.90;;;;;;20739011;28;20661;-74
2021/11/26 10:35:14;;;;;;;0.20;0.20;;;12.70;99.90;;;;;;20656582;28;20258;-73
2021/11/26 10:45:32;;;;;;;0.20;0.10;;;13.30;99.90;;;;;;20710081;28;20631;-73
2021/11/26 11:06:00;;;;;;;0.20;0.03;;;13.80;99.90;;;;;;20734763;28;20751;-74
2021/11/26 11:16:09;;;;;;;0.20;0.00;;;14.20;99.90;;;;;;20735229;28;20218;-74
2021/11/26 11:26:14;;;;;;;0.20;0.00;;;14.80;99.90;;;;;;20734789;28;20199;-74
2021/11/26 11:36:18;;;;;;;0.20;0.10;;;14.90;99.90;;;;;;20734657;28;20234;-73
2021/11/26 11:46:37;;;;;;;0.20;0.00;;;15.50;99.90;;;;;;20733274;28;20499;-75
2021/11/26 11:56:43;;;;;;;0.20;0.00;;;16.20;99.90;;;;;;20742494;28;20237;-72
2021/11/26 12:06:50;;;;;;;0.20;0.10;;;16.70;99.90;;;;;;20731943;28;20486;-73
2021/11/26 12:27:24;;;;;;;0.20;0.10;;;17.40;99.90;;;;;;20741397;28;20279;-73
2021/11/26 12:37:29;;;;;;;0.20;0.00;;;18.40;99.90;;;;;;20746988;28;20254;-72
2021/11/26 12:47:39;;;;;;;0.20;0.10;;;17.40;99.90;;;;;;20745962;28;20241;-72
2021/11/26 12:57:52;;;;;;;0.20;0.10;;;16.60;99.90;;;;;;20744393;28;20696;-72
2021/11/26 13:07:57;;;;;;;0.20;0.10;;;17.30;99.90;;;;;;20691417;28;20655;-72
2021/11/26 13:18:18;;;;;;;0.20;0.10;;;17.50;99.90;;;;;;20731743;28;20214;-73
2021/11/26 13:28:26;;;;;;;0.20;0.10;;;16.70;99.90;;;;;;20754881;28;20209;-70
2021/11/26 13:38:53;;;;;;;0.20;0.10;;;17.20;99.90;;;;;;20735697;28;20222;-70
2021/11/26 13:49:00;;;;;;;0.20;0.10;;;17.10;99.90;;;;;;20739812;28;20233;-74
2021/11/26 13:59:07;;;;;;;0.20;0.10;;;17.20;99.90;;;;;;20742657;28;20664;-74
2021/11/26 14:09:13;;;;;;;0.20;0.10;;;17.80;99.90;;;;;;20740280;28;20227;-72
2021/11/26 14:19:27;;;;;;;0.20;0.10;;;18.30;99.90;;;;;;20739760;28;21012;-71
2021/11/26 14:29:54;;;;;;;0.20;0.00;;;18.90;99.90;;;;;;20736094;28;20674;-72
2021/11/26 14:39:59;;;;;;;0.20;0.00;;;17.10;99.90;;;;;;20736823;28;20258;-72
2021/11/26 14:50:22;;;;;;;0.20;0.03;;;15.80;99.90;;;;;;20737833;28;20289;-77
2021/11/26 15:00:28;;;;;;;0.20;0.10;;;15.80;99.90;;;;;;20736632;28;20234;-72
2021/11/26 15:10:33;;;;;;;0.20;0.07;;;16.40;99.90;;;;;;20734757;28;20202;-71
2021/11/26 15:20:36;;;;;;;0.20;0.10;;;17.10;99.90;;;;;;20734585;28;20309;-70
2021/11/26 15:30:43;;;;;;;0.20;0.00;;;16.20;99.90;;;;;;20735399;28;20747;-68
2021/11/26 15:40:47;;;;;;;0.20;0.10;;;14.70;99.90;;;;;;20731561;28;20775;-69
2021/11/26 15:50:54;;;;;;;0.20;0.10;;;13.80;99.90;;;;;;20733430;28;20207;-69
2021/11/26 16:00:58;;;;;;;0.57;0.57;;;13.30;99.90;;;;;;20735145;28;20546;-77
2021/11/26 16:11:05;;;;;;;0.20;0.10;;;13.10;99.90;;;;;;20731958;28;20286;-72
2021/11/26 16:21:09;;;;;;;0.20;0.10;;;12.90;99.90;;;;;;20731240;28;20721;-70
2021/11/26 16:31:37;;;;;;;0.20;0.10;;;12.60;99.90;;;;;;20730055;28;20187;-70
2021/11/26 16:41:41;;;;;;;0.20;0.10;;;12.10;99.90;;;;;;20730194;28;20569;-70
2021/11/26 16:51:49;;;;;;;0.20;0.10;;;11.90;99.90;;;;;;20729400;28;20595;-69
2021/11/26 17:01:52;;;;;;;0.20;0.10;;;11.60;99.90;;;;;;20727991;28;20398;-69
2021/11/26 17:12:00;;;;;;;0.20;0.10;;;11.50;99.90;;;;;;20737899;28;20274;-69
2021/11/26 17:22:04;;;;;;;0.20;0.10;;;11.40;99.90;;;;;;20743709;28;20718;-68
2021/11/26 17:32:14;;;;;;;0.20;0.10;;;11.20;99.90;;;;;;20742420;28;20211;-69
2021/11/26 17:42:18;;;;;;;0.20;0.10;;;11.20;99.90;;;;;;20743155;28;20254;-69
2021/11/26 17:52:23;;;;;;;0.20;0.10;;;11.20;99.90;;;;;;20740825;28;20206;-66
2021/11/26 18:02:27;;;;;;;0.20;0.10;;;11.10;99.90;;;;;;20741388;28;20277;-70
2021/11/26 18:12:34;;;;;;;0.20;0.10;;;11.10;99.90;;;;;;20738785;28;20627;-68
2021/11/26 18:22:39;;;;;;;0.20;0.10;;;11.00;99.90;;;;;;20738084;28;20222;-68
2021/11/26 18:32:44;;;;;;;0.20;0.10;;;11.10;99.90;;;;;;20738742;28;20220;-68
2021/11/26 18:42:55;;;;;;;0.20;0.10;;;11.00;99.90;;;;;;20736641;28;20653;-68
2021/11/26 18:53:01;;;;;;;0.20;0.10;;;11.10;99.90;;;;;;20737636;28;20277;-69
2021/11/26 19:03:06;;;;;;;0.20;0.10;;;11.30;99.90;;;;;;20737419;28;20234;-69
2021/11/26 19:13:13;;;;;;;0.20;0.10;;;11.20;99.90;;;;;;20729656;28;20203;-69
2021/11/26 19:23:17;;;;;;;0.20;0.10;;;11.10;99.90;;;;;;20664376;28;20219;-69
2021/11/26 19:33:23;;;;;;;0.20;0.10;;;11.00;99.90;;;;;;20706532;28;20190;-69
2021/11/26 19:43:36;;;;;;;0.20;0.10;;;10.60;99.90;;;;;;20695631;28;20656;-71
2021/11/26 19:53:41;;;;;;;0.20;0.10;;;10.60;99.90;;;;;;20719899;28;20218;-70
2021/11/26 20:03:44;;;;;;;0.20;0.10;;;10.50;99.90;;;;;;20655911;28;20329;-71
2021/11/26 20:13:49;;;;;;;0.20;0.10;;;10.40;99.90;;;;;;20731363;28;20191;-69
2021/11/26 20:23:53;;;;;;;0.20;0.10;;;10.30;99.90;;;;;;20728092;28;20219;-69
2021/11/26 20:33:58;;;;;;;0.20;0.10;;;9.90;99.90;;;;;;20729865;28;20546;-69
2021/11/26 20:44:02;;;;;;;0.20;0.10;;;9.50;99.90;;;;;;20734754;28;20719;-69
2021/11/26 20:54:11;;;;;;;0.20;0.10;;;9.40;99.90;;;;;;20743821;28;20195;-70
2021/11/26 21:04:14;;;;;;;0.20;0.10;;;9.50;99.90;;;;;;20745770;28;20276;-70
2021/11/26 21:14:20;;;;;;;0.20;0.10;;;9.50;99.90;;;;;;20747178;28;20203;-70
2021/11/26 21:24:24;;;;;;;0.20;0.10;;;9.60;99.90;;;;;;20745503;28;20261;-70
2021/11/26 21:34:29;;;;;;;0.20;0.10;;;9.70;99.90;;;;;;20744176;28;20195;-71
2021/11/26 21:44:33;;;;;;;0.20;0.10;;;9.40;99.90;;;;;;20744398;28;20222;-71
2021/11/26 21:54:38;;;;;;;0.20;0.10;;;9.30;99.90;;;;;;20743574;28;20245;-70
2021/11/26 22:04:42;;;;;;;0.20;0.10;;;9.10;99.90;;;;;;20741509;28;20297;-69
2021/11/26 22:14:47;;;;;;;0.20;0.10;;;9.00;99.90;;;;;;20742252;28;20656;-69
2021/11/26 22:24:51;;;;;;;0.20;0.10;;;9.00;99.90;;;;;;20741887;28;20257;-69
2021/11/26 22:34:56;;;;;;;0.20;0.10;;;8.80;99.90;;;;;;20737208;28;20191;-71
2021/11/26 22:45:00;;;;;;;0.20;0.10;;;8.80;99.90;;;;;;20736749;28;20676;-69
2021/11/26 22:55:06;;;;;;;0.20;0.10;;;8.60;99.90;;;;;;20735910;28;20190;-69
2021/11/26 23:05:10;;;;;;;0.20;0.10;;;8.50;99.90;;;;;;20737328;28;20285;-70
2021/11/26 23:15:17;;;;;;;0.20;0.10;;;8.50;99.90;;;;;;20738701;28;20199;-71
2021/11/26 23:25:21;;;;;;;0.50;0.50;;;8.30;99.90;;;;;;20731880;28;20230;-71
2021/11/26 23:35:28;;;;;;;0.20;0.10;;;8.50;99.90;;;;;;20722946;28;20194;-72
2021/11/26 23:45:32;;;;;;;0.20;0.10;;;8.60;99.90;;;;;;20736223;28;20226;-72
2021/11/26 23:55:37;;;;;;;0.20;0.10;;;8.20;99.90;;;;;;20735741;28;20971;-72
